createdAt,value
2022-09-26T00:03:53.765Z,8.25
2022-09-26T00:08:57.923Z,8.22
2022-09-26T00:14:02.086Z,8.24
2022-09-26T00:19:04.358Z,8.24
2022-09-26T00:24:08.504Z,8.23
2022-09-26T00:29:12.851Z,8.24
2022-09-26T00:34:16.826Z,8.20
2022-09-26T00:39:21.021Z,8.29
2022-09-26T00:44:25.133Z,8.50
2022-09-26T00:49:29.321Z,8.57
2022-09-26T00:54:31.599Z,8.54
2022-09-26T00:59:35.748Z,8.54
2022-09-26T01:04:38.024Z,8.56
2022-09-26T01:09:42.203Z,8.67
2022-09-26T01:14:46.370Z,8.79
2022-09-26T01:19:50.539Z,8.89
2022-09-26T01:24:54.649Z,9.01
2022-09-26T01:29:58.824Z,9.15
2022-09-26T01:35:03.019Z,9.34
2022-09-26T01:40:07.151Z,9.49
2022-09-26T01:45:11.341Z,9.60
2022-09-26T01:50:15.472Z,9.73
2022-09-26T01:55:19.640Z,9.85
2022-09-26T02:00:23.801Z,9.90
2022-09-26T02:05:27.963Z,9.91
2022-09-26T02:10:32.113Z,9.93
2022-09-26T02:15:36.287Z,10.01
2022-09-26T02:20:40.430Z,10.08
2022-09-26T02:25:44.625Z,10.17
2022-09-26T02:30:48.769Z,10.24
2022-09-26T02:35:52.905Z,10.28
2022-09-26T02:40:57.196Z,10.33
2022-09-26T02:46:01.367Z,10.36
2022-09-26T02:51:03.507Z,10.38
2022-09-26T02:56:07.690Z,10.41
2022-09-26T03:01:09.996Z,10.43
2022-09-26T03:06:14.151Z,10.45
2022-09-26T03:11:18.304Z,10.44
2022-09-26T03:16:22.510Z,10.48
2022-09-26T03:21:26.575Z,10.47
2022-09-26T03:26:30.750Z,10.50
2022-09-26T03:31:34.966Z,10.49
2022-09-26T03:36:39.052Z,10.48
2022-09-26T03:41:43.246Z,10.50
2022-09-26T03:46:47.398Z,10.52
2022-09-26T03:51:51.565Z,10.54
2022-09-26T03:56:55.734Z,10.60
2022-09-26T04:01:59.955Z,10.58
2022-09-26T04:07:04.030Z,10.57
2022-09-26T04:12:08.227Z,10.57
2022-09-26T04:17:12.355Z,10.57
2022-09-26T04:22:16.518Z,10.56
2022-09-26T04:27:20.674Z,10.55
2022-09-26T04:32:24.853Z,10.55
2022-09-26T04:37:29.029Z,10.57
2022-09-26T04:42:33.192Z,10.53
2022-09-26T04:47:35.437Z,10.52
2022-09-26T04:52:39.608Z,10.49
2022-09-26T04:57:41.891Z,10.48
2022-09-26T05:02:46.042Z,10.43
2022-09-26T05:07:50.235Z,10.41
2022-09-26T05:12:54.343Z,10.38
2022-09-26T05:17:58.517Z,10.36
2022-09-26T05:23:02.724Z,10.34
2022-09-26T05:28:06.862Z,10.35
2022-09-26T05:33:11.029Z,10.35
2022-09-26T05:38:15.178Z,10.34
2022-09-26T05:43:19.314Z,10.35
2022-09-26T05:48:23.521Z,10.34
2022-09-26T05:53:27.659Z,10.34
2022-09-26T05:58:31.837Z,10.36
2022-09-26T06:03:35.981Z,10.46
2022-09-26T06:08:40.117Z,10.54
2022-09-26T06:18:48.438Z,10.77
2022-09-26T06:23:52.615Z,10.89
2022-09-26T06:28:56.821Z,10.98
2022-09-26T06:34:00.950Z,11.10
2022-09-26T06:39:05.130Z,11.17
2022-09-26T06:44:09.262Z,11.24
2022-09-26T06:49:11.734Z,11.34
2022-09-26T06:54:15.706Z,11.39
2022-09-26T06:59:19.908Z,11.41
2022-09-26T07:04:24.006Z,11.48
2022-09-26T07:09:26.295Z,11.46
2022-09-26T07:14:30.452Z,11.54
2022-09-26T07:19:34.606Z,11.55
2022-09-26T07:24:38.773Z,11.54
2022-09-26T07:29:42.973Z,11.52
2022-09-26T07:34:47.195Z,11.58
2022-09-26T07:39:53.576Z,11.61
2022-09-26T07:45:23.195Z,11.66
2022-09-26T07:49:59.606Z,11.70
2022-09-26T07:55:03.790Z,11.68
2022-09-26T08:00:07.903Z,11.73
2022-09-26T08:05:12.064Z,11.75
2022-09-26T08:10:16.217Z,11.73
2022-09-26T08:15:20.423Z,11.74
2022-09-26T08:20:28.536Z,11.72
2022-09-26T08:25:28.732Z,11.68
2022-09-26T08:30:32.877Z,11.66
2022-09-26T08:35:37.054Z,11.69
2022-09-26T08:40:41.252Z,11.74
2022-09-26T08:45:47.875Z,11.79
2022-09-26T08:50:49.544Z,11.84
2022-09-26T08:55:51.830Z,11.75
2022-09-26T09:00:55.927Z,11.72
2022-09-26T09:06:00.144Z,11.66
2022-09-26T09:11:02.399Z,11.68
2022-09-26T09:16:06.613Z,11.64
2022-09-26T09:21:10.693Z,11.57
2022-09-26T09:31:19.019Z,11.49
2022-09-26T09:36:23.151Z,11.43
2022-09-26T09:41:27.328Z,11.43
2022-09-26T09:46:31.601Z,11.37
2022-09-26T09:51:39.300Z,11.35
2022-09-26T09:56:39.860Z,11.36
2022-09-26T10:01:44.081Z,11.40
2022-09-26T10:06:48.160Z,11.48
2022-09-26T10:11:52.707Z,11.47
2022-09-26T10:16:56.484Z,11.47
2022-09-26T10:22:00.635Z,11.60
2022-09-26T10:27:04.753Z,11.74
2022-09-26T10:32:08.947Z,11.88
2022-09-26T10:37:13.094Z,11.92
2022-09-26T10:42:17.255Z,12.09
2022-09-26T10:47:21.429Z,12.11
2022-09-26T10:52:25.571Z,12.23
2022-09-26T10:57:27.940Z,12.20
2022-09-26T11:02:34.035Z,12.11
2022-09-26T11:07:36.195Z,12.10
2022-09-26T11:12:40.336Z,12.23
2022-09-26T11:17:44.505Z,12.45
2022-09-26T11:22:48.683Z,12.51
2022-09-26T11:27:52.796Z,12.71
2022-09-26T11:32:56.966Z,12.84
2022-09-26T11:38:01.159Z,13.18
2022-09-26T11:43:05.290Z,13.17
2022-09-26T11:48:09.446Z,13.19
2022-09-26T11:53:13.627Z,13.48
2022-09-26T11:58:17.780Z,13.63
2022-09-26T12:03:22.139Z,13.68
2022-09-26T12:08:26.118Z,13.54
2022-09-26T12:13:30.305Z,13.55
2022-09-26T12:18:34.424Z,13.38
2022-09-26T12:23:38.604Z,13.49
2022-09-26T12:28:42.789Z,13.54
2022-09-26T12:33:46.891Z,13.69
2022-09-26T12:38:56.373Z,13.55
2022-09-26T12:43:53.346Z,13.57
2022-09-26T12:48:57.504Z,13.60
2022-09-26T12:53:59.766Z,13.48
2022-09-26T12:59:03.924Z,13.35
2022-09-26T13:04:08.089Z,13.12
2022-09-26T13:09:12.350Z,13.00
2022-09-26T13:14:16.387Z,12.78
2022-09-26T13:19:20.578Z,12.71
2022-09-26T13:24:24.718Z,12.67
2022-09-26T13:29:29.163Z,12.53
2022-09-26T13:34:33.048Z,12.56
2022-09-26T13:39:37.229Z,12.64
2022-09-26T13:44:41.357Z,12.69
2022-09-26T13:49:45.546Z,12.70
2022-09-26T13:54:49.674Z,12.73
2022-09-26T13:59:53.882Z,12.87
2022-09-26T14:04:58.034Z,12.74
2022-09-26T14:10:02.332Z,12.68
2022-09-26T14:15:06.354Z,12.54
2022-09-26T14:20:10.497Z,12.48
2022-09-26T14:25:14.652Z,12.41
2022-09-26T14:30:18.824Z,12.43
2022-09-26T14:35:22.971Z,12.27
2022-09-26T14:40:25.337Z,12.19
2022-09-26T14:45:29.431Z,12.15
2022-09-26T14:50:33.542Z,12.19
2022-09-26T14:55:37.723Z,12.06
2022-09-26T15:00:41.878Z,12.01
2022-09-26T15:05:46.064Z,12.01
2022-09-26T15:10:50.218Z,11.93
2022-09-26T15:15:54.446Z,11.88
2022-09-26T15:21:03.467Z,11.84
2022-09-26T15:26:02.855Z,11.72
2022-09-26T15:31:06.944Z,11.66
2022-09-26T15:36:11.018Z,11.58
2022-09-26T15:41:15.185Z,11.50
2022-09-26T15:46:19.401Z,11.43
2022-09-26T15:51:23.498Z,11.46
2022-09-26T15:56:27.688Z,11.46
2022-09-26T16:06:35.979Z,11.33
2022-09-26T16:11:40.159Z,11.26
2022-09-26T16:16:44.293Z,11.27
2022-09-26T16:21:48.461Z,11.26
2022-09-26T16:26:52.621Z,11.28
2022-09-26T16:31:54.875Z,11.22
2022-09-26T16:36:59.070Z,11.15
2022-09-26T16:42:03.099Z,11.10
2022-09-26T16:47:05.884Z,11.08
2022-09-26T16:52:07.764Z,11.00
2022-09-26T16:57:11.946Z,10.91
2022-09-26T17:02:16.132Z,10.91
2022-09-26T17:07:20.224Z,10.86
2022-09-26T17:12:24.428Z,10.85
2022-09-26T17:17:26.662Z,10.84
2022-09-26T17:22:30.886Z,10.81
2022-09-26T17:27:35.034Z,10.84
2022-09-26T17:32:39.169Z,10.84
2022-09-26T17:37:43.310Z,10.82
2022-09-26T17:42:47.461Z,10.80
2022-09-26T17:47:51.656Z,10.79
2022-09-26T17:52:55.801Z,10.77
2022-09-26T17:57:59.962Z,10.76
2022-09-26T18:03:04.435Z,10.72
2022-09-26T18:08:08.314Z,10.70
2022-09-26T18:13:13.516Z,10.71
2022-09-26T18:18:16.622Z,10.68
2022-09-26T18:23:20.801Z,10.67
2022-09-26T18:28:24.919Z,10.66
2022-09-26T18:33:29.370Z,10.63
2022-09-26T18:38:31.357Z,10.62
2022-09-26T18:43:40.587Z,10.60
2022-09-26T18:48:37.782Z,10.60
2022-09-26T18:53:41.983Z,10.58
2022-09-26T18:58:46.102Z,10.58
2022-09-26T19:03:50.286Z,10.56
2022-09-26T19:08:54.443Z,10.53
2022-09-26T19:13:58.606Z,10.51
2022-09-26T19:19:02.791Z,10.53
2022-09-26T19:24:06.974Z,10.54
2022-09-26T19:29:12.165Z,10.54
2022-09-26T19:34:15.332Z,10.55
2022-09-26T19:39:19.408Z,10.56
2022-09-26T19:44:23.569Z,10.58
2022-09-26T19:49:27.707Z,10.60
2022-09-26T19:54:31.910Z,10.61
2022-09-26T19:59:36.043Z,10.61
2022-09-26T20:04:40.193Z,10.63
2022-09-26T20:09:44.385Z,10.60
2022-09-26T20:14:48.504Z,10.64
2022-09-26T20:19:57.746Z,10.63
2022-09-26T20:24:56.824Z,10.63
2022-09-26T20:30:01.005Z,10.62
2022-09-26T20:35:03.307Z,10.65
2022-09-26T20:40:07.461Z,10.63
2022-09-26T20:45:11.590Z,10.60
2022-09-26T20:50:15.746Z,10.58
2022-09-26T20:55:19.922Z,10.58
2022-09-26T21:00:24.052Z,10.58
2022-09-26T21:05:28.241Z,10.59
2022-09-26T21:10:32.421Z,10.60
2022-09-26T21:15:36.584Z,10.59
2022-09-26T21:20:40.727Z,10.56
2022-09-26T21:25:44.892Z,10.53
2022-09-26T21:30:49.133Z,10.53
2022-09-26T21:35:53.225Z,10.56
2022-09-26T21:40:57.469Z,10.56
2022-09-26T21:46:01.633Z,10.54
2022-09-26T21:51:05.683Z,10.58
2022-09-26T21:56:09.838Z,10.58
2022-09-26T22:01:14.184Z,10.60
2022-09-26T22:06:18.158Z,10.60
2022-09-26T22:11:22.336Z,10.61
2022-09-26T22:16:26.546Z,10.59
2022-09-26T22:21:28.741Z,10.55
2022-09-26T22:26:32.945Z,10.57
2022-09-26T22:31:37.126Z,10.56
2022-09-26T22:36:41.260Z,10.54
2022-09-26T22:41:45.419Z,10.54
2022-09-26T22:46:49.550Z,10.56
2022-09-26T22:51:53.728Z,10.55
2022-09-26T22:56:57.928Z,10.55
2022-09-26T23:02:02.145Z,10.54
2022-09-26T23:07:06.220Z,10.54
2022-09-26T23:12:10.369Z,10.52
2022-09-26T23:17:14.605Z,10.49
2022-09-26T23:22:18.714Z,10.49
2022-09-26T23:27:22.834Z,10.47
2022-09-26T23:32:26.988Z,10.38
2022-09-26T23:37:31.180Z,10.34
2022-09-26T23:42:35.324Z,10.26
2022-09-26T23:47:39.498Z,10.23
2022-09-26T23:52:43.674Z,10.19
2022-09-26T23:57:47.794Z,10.17
